This is the latest recevied weather packets stored in our database for station/object CA2JAT-13. If no packets are shown the sender has not sent any weather packets the latest 10 day(s).
| Time | Temp. | Humidity | Pressure | Rain* | Wind** | Luminosity | Snow |
|---|---|---|---|---|---|---|---|
| 1788201885 | 24.44° C | 33% | 1018.1 hPa | 0 mm | - | 706 W/m² | - |
| 1788200083 | 23.89° C | 25% | 1019.2 hPa | 0 mm | - | 780 W/m² | - |
| 1788198280 | 23.33° C | 25% | 1019.7 hPa | 0 mm | - | 802 W/m² | - |
| 1788196478 | 21.67° C | 31% | 1021.3 hPa | 0 mm | - | 819 W/m² | - |
| 1788194676 | 20.56° C | 32% | 1022.3 hPa | 0 mm | - | 814 W/m² | - |
| 1788192874 | 20.56° C | 37% | 1022.8 hPa | 0 mm | - | 786 W/m² | - |
| 1788191071 | 18.33° C | 40% | 1023.8 hPa | 0 mm | - | 742 W/m² | - |
| 1788189268 | 17.78° C | 39% | 1024.1 hPa | 0 mm | - | 710 W/m² | - |
| 1788187466 | 16.67° C | 52% | 1024.7 hPa | 0 mm | - | 650 W/m² | - |
| 1788185663 | 15.56° C | 53% | 1024.7 hPa | 0 mm | - | 526 W/m² | - |
| 1788183810 | 15° C | 52% | 1024.7 hPa | 0 mm | - | 430 W/m² | - |
| 1788182008 | 15° C | 54% | 1024.8 hPa | 0 mm | - | 383 W/m² | - |
| 1788180205 | 13.33° C | 56% | 1024.9 hPa | 0 mm | - | 221 W/m² | - |
| 1788178403 | 12.22° C | 59% | 1024.8 hPa | 0 mm | - | 113 W/m² | - |
| 1788176600 | 12.22° C | 58% | 1024.7 hPa | 0 mm | - | 7 W/m² | - |
| 1788174798 | 11.67° C | 66% | 1024.8 hPa | 0 mm | - | 0 W/m² | - |
| 1788172995 | 11.67° C | 64% | 1024.7 hPa | 0 mm | - | 0 W/m² | - |
| 1788171193 | 11.11° C | 70% | 1025.2 hPa | 0 mm | - | 0 W/m² | - |
| 1788169390 | 10.56° C | 86% | 1025.5 hPa | 0 mm | - | 0 W/m² | - |
| 1788167588 | 10° C | 98% | 1026.3 hPa | 0 mm | - | 0 W/m² | - |
| 1788165786 | 10° C | 98% | 1026.4 hPa | 0 mm | - | 0 W/m² | - |
| 1788163983 | 10° C | 99% | 1025.5 hPa | 0 mm | - | 0 W/m² | - |
| 1788162181 | 10.56° C | 92% | 1025.3 hPa | 0 mm | - | 0 W/m² | - |
| 1788160378 | 10.56° C | 93% | 1024.7 hPa | 0 mm | - | 0 W/m² | - |
| 1788158576 | 10.56° C | 93% | 1024.1 hPa | 0 mm | - | 0 W/m² | - |
* Rain latest hour (hover to see other rain measurements)
** Current wind speed in m/s (hover to see current wind gust speed)